createdAt,value
2023-05-08T00:00:48.400Z,23.98
2023-05-08T00:01:48.353Z,23.98
2023-05-08T00:02:48.405Z,23.98
2023-05-08T00:03:48.573Z,23.98
2023-05-08T00:04:48.386Z,23.98
2023-05-08T00:05:48.374Z,23.97
2023-05-08T00:06:48.327Z,23.97
2023-05-08T00:07:48.343Z,23.97
2023-05-08T00:08:48.331Z,23.97
2023-05-08T00:09:48.303Z,23.97
2023-05-08T00:10:48.288Z,23.97
2023-05-08T00:11:48.299Z,23.97
2023-05-08T00:12:48.326Z,23.97
2023-05-08T00:13:48.266Z,23.96
2023-05-08T00:14:48.277Z,23.96
2023-05-08T00:15:48.298Z,23.96
2023-05-08T00:16:48.303Z,23.96
2023-05-08T00:17:48.318Z,23.96
2023-05-08T00:18:48.254Z,23.96
2023-05-08T00:19:48.269Z,23.95
2023-05-08T00:20:48.229Z,23.96
2023-05-08T00:21:48.222Z,23.95
2023-05-08T00:22:48.221Z,23.95
2023-05-08T00:23:48.204Z,23.95
2023-05-08T00:24:48.212Z,23.95
2023-05-08T00:25:48.200Z,23.95
2023-05-08T00:26:48.189Z,23.95
2023-05-08T00:27:48.167Z,23.95
2023-05-08T00:28:48.178Z,23.95
2023-05-08T00:29:48.172Z,23.95
2023-05-08T00:30:48.214Z,23.94
2023-05-08T00:31:48.237Z,23.95
2023-05-08T00:32:48.180Z,23.94
2023-05-08T00:33:48.168Z,23.94
2023-05-08T00:34:48.206Z,23.94
2023-05-08T00:35:48.123Z,23.94
2023-05-08T00:36:48.120Z,23.93
2023-05-08T00:37:48.145Z,23.93
2023-05-08T00:38:48.108Z,23.93
2023-05-08T00:39:48.100Z,23.93
2023-05-08T00:40:48.087Z,23.93
2023-05-08T00:41:48.067Z,23.93
2023-05-08T00:42:48.059Z,23.93
2023-05-08T00:43:48.069Z,23.93
2023-05-08T00:44:48.076Z,23.92
2023-05-08T00:45:48.106Z,23.93
2023-05-08T00:46:48.190Z,23.93
2023-05-08T00:47:48.120Z,23.92
2023-05-08T00:48:48.051Z,23.92
2023-05-08T00:49:48.057Z,23.92
2023-05-08T00:50:48.004Z,23.92
2023-05-08T00:51:48.085Z,23.92
2023-05-08T00:52:48.008Z,23.92
2023-05-08T00:53:47.979Z,23.92
2023-05-08T00:54:47.992Z,23.91
2023-05-08T00:55:47.967Z,23.91
2023-05-08T00:56:47.971Z,23.91
2023-05-08T00:57:47.957Z,23.91
2023-05-08T00:58:47.943Z,23.91
2023-05-08T00:59:47.971Z,23.91
2023-05-08T01:00:47.968Z,23.90
2023-05-08T01:01:47.946Z,23.90
2023-05-08T01:02:48.000Z,23.90
2023-05-08T01:03:48.006Z,23.91
2023-05-08T01:04:47.949Z,23.90
2023-05-08T01:05:47.897Z,23.90
2023-05-08T01:06:47.895Z,23.91
2023-05-08T01:07:47.925Z,23.90
2023-05-08T01:08:47.890Z,23.90
2023-05-08T01:09:47.869Z,23.90
2023-05-08T01:10:47.880Z,23.89
2023-05-08T01:11:47.884Z,23.89
2023-05-08T01:12:47.936Z,23.90
2023-05-08T01:13:47.856Z,23.90
2023-05-08T01:14:47.855Z,23.89
2023-05-08T01:15:47.897Z,23.89
2023-05-08T01:16:47.882Z,23.89
2023-05-08T01:17:47.854Z,23.89
2023-05-08T01:18:47.849Z,23.89
2023-05-08T01:19:47.847Z,23.88
2023-05-08T01:20:47.827Z,23.88
2023-05-08T01:21:47.842Z,23.88
2023-05-08T01:22:47.852Z,23.89
2023-05-08T01:23:47.837Z,23.89
2023-05-08T01:24:47.841Z,23.88
2023-05-08T01:25:47.854Z,23.88
2023-05-08T01:26:47.860Z,23.88
2023-05-08T01:27:47.845Z,23.89
2023-05-08T01:28:47.860Z,23.88
2023-05-08T01:29:47.870Z,23.87
2023-05-08T01:30:47.868Z,23.88
2023-05-08T01:31:47.876Z,23.88
2023-05-08T01:32:47.917Z,23.87
2023-05-08T01:33:47.896Z,23.88
2023-05-08T01:34:47.898Z,23.88
2023-05-08T01:35:47.910Z,23.87
2023-05-08T01:36:47.947Z,23.87
2023-05-08T01:37:47.916Z,23.87
2023-05-08T01:38:47.935Z,23.87
2023-05-08T01:39:48.227Z,23.87
2023-05-08T01:40:47.947Z,23.87
2023-05-08T01:41:47.922Z,23.86
2023-05-08T01:42:47.941Z,23.87
2023-05-08T01:43:47.937Z,23.86
2023-05-08T01:44:47.948Z,23.86
2023-05-08T01:45:47.965Z,23.85
2023-05-08T01:46:47.998Z,23.85
2023-05-08T01:47:47.998Z,23.86
2023-05-08T01:48:47.986Z,23.86
2023-05-08T01:49:47.996Z,23.85
2023-05-08T01:50:48.012Z,23.85
2023-05-08T01:51:47.987Z,23.85
2023-05-08T01:52:47.997Z,23.85
2023-05-08T01:53:48.016Z,23.85
2023-05-08T01:54:48.010Z,23.86
2023-05-08T01:55:48.016Z,23.85
2023-05-08T01:56:48.162Z,23.85
2023-05-08T01:57:48.020Z,23.85
2023-05-08T01:58:48.035Z,23.85
2023-05-08T01:59:48.051Z,23.84
2023-05-08T02:00:48.740Z,23.85
2023-05-08T02:01:48.084Z,23.84
2023-05-08T02:02:48.127Z,23.84
2023-05-08T02:03:48.111Z,23.84
2023-05-08T02:04:48.075Z,23.84
2023-05-08T02:05:48.082Z,23.84
2023-05-08T02:06:48.117Z,23.84
2023-05-08T02:07:48.100Z,23.84
2023-05-08T02:08:48.138Z,23.84
2023-05-08T02:09:48.164Z,23.84
2023-05-08T02:10:48.155Z,23.84
2023-05-08T02:11:48.153Z,23.83
2023-05-08T02:12:48.226Z,23.83
2023-05-08T02:13:48.195Z,23.83
2023-05-08T02:14:48.167Z,23.83
2023-05-08T02:15:48.193Z,23.83
2023-05-08T02:16:48.245Z,23.82
2023-05-08T02:17:48.255Z,23.83
2023-05-08T02:18:48.219Z,23.82
2023-05-08T02:19:48.242Z,23.83
2023-05-08T02:20:48.250Z,23.82
2023-05-08T02:21:48.225Z,23.82
2023-05-08T02:22:48.287Z,23.82
2023-05-08T02:23:48.258Z,23.83
2023-05-08T02:24:48.268Z,23.82
2023-05-08T02:25:48.317Z,23.82
2023-05-08T02:26:48.300Z,23.82
2023-05-08T02:27:48.293Z,23.82
2023-05-08T02:28:48.324Z,23.82
2023-05-08T02:29:48.307Z,23.82
2023-05-08T02:30:48.316Z,23.82
2023-05-08T02:31:48.391Z,23.81
2023-05-08T02:32:48.418Z,23.81
2023-05-08T02:33:48.354Z,23.81
2023-05-08T02:35:02.038Z,23.81
2023-05-08T02:35:49.385Z,23.81
2023-05-08T02:36:48.402Z,23.81
2023-05-08T02:37:48.387Z,23.81
2023-05-08T02:38:48.360Z,23.81
2023-05-08T02:39:48.364Z,23.81
2023-05-08T02:40:48.341Z,23.81
2023-05-08T02:41:48.332Z,23.81
2023-05-08T02:42:48.324Z,23.80
2023-05-08T02:43:48.337Z,23.81
2023-05-08T02:44:48.333Z,23.80
2023-05-08T02:45:48.378Z,23.80
2023-05-08T02:46:48.307Z,23.80
2023-05-08T02:47:48.339Z,23.80
2023-05-08T02:48:48.293Z,23.80
2023-05-08T02:49:48.275Z,23.79
2023-05-08T02:50:48.272Z,23.80
2023-05-08T02:51:48.313Z,23.80
2023-05-08T02:52:48.263Z,23.80
2023-05-08T02:53:48.293Z,23.79
2023-05-08T02:54:48.271Z,23.79
2023-05-08T02:55:48.277Z,23.79
2023-05-08T02:56:48.282Z,23.79
2023-05-08T02:57:48.230Z,23.79
2023-05-08T02:58:48.239Z,23.79
2023-05-08T02:59:48.224Z,23.79
2023-05-08T03:00:48.214Z,23.78
2023-05-08T03:01:48.402Z,23.78
2023-05-08T03:02:48.401Z,23.78
2023-05-08T03:03:48.242Z,23.78
2023-05-08T03:04:48.191Z,23.78
2023-05-08T03:05:48.180Z,23.78
2023-05-08T03:06:48.160Z,23.78
2023-05-08T03:07:48.191Z,23.78
2023-05-08T03:08:48.260Z,23.78
2023-05-08T03:09:48.186Z,23.77
2023-05-08T03:10:48.123Z,23.78
2023-05-08T03:11:48.163Z,23.78
2023-05-08T03:12:48.204Z,23.78
2023-05-08T03:13:48.196Z,23.77
2023-05-08T03:14:48.199Z,23.78
2023-05-08T03:15:48.232Z,23.76
2023-05-08T03:16:48.200Z,23.77
2023-05-08T03:17:48.254Z,23.76
2023-05-08T03:18:48.238Z,23.77
2023-05-08T03:19:48.244Z,23.75
2023-05-08T03:20:48.266Z,23.77
2023-05-08T03:21:48.289Z,23.77
2023-05-08T03:22:48.317Z,23.77
2023-05-08T03:23:48.279Z,23.76
2023-05-08T03:24:48.285Z,23.76
2023-05-08T03:25:48.306Z,23.76
2023-05-08T03:26:48.312Z,23.76
2023-05-08T03:27:48.314Z,23.75
2023-05-08T03:28:48.357Z,23.75
2023-05-08T03:29:48.352Z,23.75
2023-05-08T03:30:48.361Z,23.75
2023-05-08T03:31:48.399Z,23.76
2023-05-08T03:32:48.482Z,23.76
2023-05-08T03:33:48.459Z,23.75
2023-05-08T03:34:48.434Z,23.75
2023-05-08T03:35:48.467Z,23.74
2023-05-08T03:36:48.508Z,23.75
2023-05-08T03:37:48.474Z,23.75
2023-05-08T03:38:48.516Z,23.75
2023-05-08T03:39:48.510Z,23.74
2023-05-08T03:40:48.542Z,23.74
2023-05-08T03:41:48.548Z,23.74
2023-05-08T03:42:48.555Z,23.74
2023-05-08T03:43:48.571Z,23.74
2023-05-08T03:44:48.579Z,23.74
2023-05-08T03:45:48.627Z,23.74
2023-05-08T03:46:48.664Z,23.74
2023-05-08T03:47:48.697Z,23.73
2023-05-08T03:48:48.652Z,23.73
2023-05-08T03:49:48.680Z,23.73
2023-05-08T03:50:48.723Z,23.73
2023-05-08T03:53:07.427Z,23.73
2023-05-08T03:54:07.422Z,23.73
2023-05-08T03:55:07.430Z,23.73
2023-05-08T03:56:07.435Z,23.72
2023-05-08T03:57:07.453Z,23.72
2023-05-08T03:58:07.442Z,23.72
2023-05-08T03:59:07.493Z,23.72
2023-05-08T04:00:07.510Z,23.71
2023-05-08T04:01:07.547Z,23.72
2023-05-08T04:02:07.559Z,23.72
2023-05-08T04:03:07.605Z,23.72
2023-05-08T04:04:07.670Z,23.72
2023-05-08T04:05:07.591Z,23.72
2023-05-08T04:06:07.615Z,23.72
2023-05-08T04:07:07.645Z,23.72
2023-05-08T04:08:07.651Z,23.72
2023-05-08T04:09:07.688Z,23.71
2023-05-08T04:10:07.689Z,23.72
2023-05-08T04:11:07.703Z,23.71
2023-05-08T04:12:07.715Z,23.71
2023-05-08T04:13:07.798Z,23.71
2023-05-08T04:14:07.807Z,23.71
2023-05-08T04:15:07.781Z,23.71
2023-05-08T04:16:07.824Z,23.71
2023-05-08T04:17:08.024Z,23.71
2023-05-08T04:18:07.912Z,23.70
2023-05-08T04:19:07.882Z,23.70
2023-05-08T04:20:07.887Z,23.70
2023-05-08T04:21:07.896Z,23.70
2023-05-08T04:22:07.969Z,23.71
2023-05-08T04:23:07.957Z,23.70
2023-05-08T04:24:07.974Z,23.70
2023-05-08T04:25:07.981Z,23.70
2023-05-08T04:26:08.007Z,23.70
2023-05-08T04:27:08.036Z,23.70
2023-05-08T04:28:08.039Z,23.70
2023-05-08T04:29:08.044Z,23.69
2023-05-08T04:30:08.093Z,23.70
2023-05-08T04:31:08.108Z,23.69
2023-05-08T04:32:08.331Z,23.69
2023-05-08T04:33:08.207Z,23.70
2023-05-08T04:34:08.158Z,23.69
2023-05-08T04:35:08.219Z,23.70
2023-05-08T04:36:08.193Z,23.71
2023-05-08T04:37:08.244Z,23.69
2023-05-08T04:38:08.231Z,23.69
2023-05-08T04:39:08.305Z,23.69
2023-05-08T04:40:08.325Z,23.69
2023-05-08T04:41:08.392Z,23.69
2023-05-08T04:42:08.364Z,23.69
2023-05-08T04:43:08.373Z,23.70
2023-05-08T04:44:08.398Z,23.69
2023-05-08T04:45:08.376Z,23.69
2023-05-08T04:46:08.467Z,23.69
2023-05-08T04:47:08.438Z,23.69
2023-05-08T04:48:08.569Z,23.69
2023-05-08T04:49:08.482Z,23.69
2023-05-08T04:50:08.498Z,23.69
2023-05-08T04:51:08.519Z,23.69
2023-05-08T04:52:08.553Z,23.68
2023-05-08T04:53:08.526Z,23.68
2023-05-08T04:54:08.589Z,23.68
2023-05-08T04:55:08.585Z,23.68
2023-05-08T04:56:08.585Z,23.68
2023-05-08T04:57:08.632Z,23.69
2023-05-08T04:58:08.656Z,23.68
2023-05-08T04:59:08.632Z,23.68
2023-05-08T05:00:08.661Z,23.68
2023-05-08T05:01:08.709Z,23.68
2023-05-08T05:02:08.770Z,23.68
2023-05-08T05:03:08.775Z,23.67
2023-05-08T05:04:08.764Z,23.68
2023-05-08T05:05:08.800Z,23.67
2023-05-08T05:06:08.774Z,23.68
2023-05-08T05:07:08.811Z,23.68
2023-05-08T05:08:08.817Z,23.67
2023-05-08T05:09:08.849Z,23.68
2023-05-08T05:10:08.870Z,23.67
2023-05-08T05:11:08.896Z,23.67
2023-05-08T05:12:08.908Z,23.67
2023-05-08T05:13:08.946Z,23.67
2023-05-08T05:14:08.922Z,23.67
2023-05-08T05:15:08.967Z,23.67
2023-05-08T05:16:09.022Z,23.67
2023-05-08T05:17:09.062Z,23.67
2023-05-08T05:18:09.097Z,23.67
2023-05-08T05:19:09.057Z,23.67
2023-05-08T05:20:09.144Z,23.67
2023-05-08T05:21:09.114Z,23.67
2023-05-08T05:22:09.119Z,23.67
2023-05-08T05:23:09.253Z,23.67
2023-05-08T05:24:09.192Z,23.67
2023-05-08T05:25:09.282Z,23.67
2023-05-08T05:26:09.284Z,23.66
2023-05-08T05:27:09.254Z,23.66
2023-05-08T05:28:09.271Z,23.67
2023-05-08T05:29:09.343Z,23.67
2023-05-08T05:30:09.338Z,23.67
2023-05-08T05:31:09.385Z,23.67
2023-05-08T05:32:09.382Z,23.66
2023-05-08T05:33:09.512Z,23.66
2023-05-08T05:34:09.460Z,23.65
2023-05-08T05:35:09.568Z,23.64
2023-05-08T05:36:09.515Z,23.61
2023-05-08T05:37:09.571Z,23.61
2023-05-08T05:38:09.614Z,23.63
2023-05-08T05:39:09.646Z,23.64
2023-05-08T05:40:09.630Z,23.66
2023-05-08T05:41:09.639Z,23.69
2023-05-08T05:42:09.725Z,23.73
2023-05-08T05:43:09.687Z,23.77
2023-05-08T05:44:09.708Z,23.82
2023-05-08T05:45:09.802Z,23.85
2023-05-08T05:46:09.768Z,23.90
2023-05-08T05:47:09.948Z,23.93
2023-05-08T05:48:09.786Z,23.98
2023-05-08T05:49:09.789Z,24.05
2023-05-08T05:50:09.958Z,24.09
2023-05-08T05:51:09.828Z,24.14
2023-05-08T05:52:09.835Z,24.18
2023-05-08T05:53:09.814Z,24.22
2023-05-08T05:54:09.856Z,24.27
2023-05-08T05:55:10.115Z,24.30
2023-05-08T05:56:10.008Z,24.32
2023-05-08T05:57:10.013Z,24.35
2023-05-08T05:58:10.070Z,24.36
2023-05-08T05:59:10.136Z,24.37
2023-05-08T06:00:10.248Z,24.40
2023-05-08T06:01:10.269Z,24.43
2023-05-08T06:02:10.428Z,24.46
2023-05-08T06:03:10.434Z,24.49
2023-05-08T06:04:10.497Z,24.52
2023-05-08T06:05:10.650Z,24.55
2023-05-08T06:06:10.511Z,24.57
2023-05-08T06:07:10.597Z,24.61
2023-05-08T06:08:10.611Z,24.64
2023-05-08T06:09:10.649Z,24.67
2023-05-08T06:10:10.718Z,24.68
2023-05-08T06:11:10.722Z,24.69
2023-05-08T06:12:10.837Z,24.71
2023-05-08T06:13:10.805Z,24.72
2023-05-08T06:14:10.823Z,24.75
2023-05-08T06:15:11.127Z,24.77
2023-05-08T06:16:10.886Z,24.79
2023-05-08T06:17:11.044Z,24.78
2023-05-08T06:18:11.009Z,24.79
2023-05-08T06:19:10.985Z,24.81
2023-05-08T06:20:11.033Z,24.83
2023-05-08T06:21:11.042Z,24.86
2023-05-08T06:22:11.110Z,24.87
2023-05-08T06:23:11.107Z,24.89
2023-05-08T06:24:11.106Z,24.92
2023-05-08T06:25:11.377Z,24.95
2023-05-08T06:26:11.131Z,24.95
2023-05-08T06:27:11.191Z,24.96
2023-05-08T06:28:11.182Z,24.99
2023-05-08T06:29:11.219Z,25.00
2023-05-08T06:30:11.273Z,25.03
2023-05-08T06:31:11.383Z,25.02
2023-05-08T06:32:12.180Z,25.01
2023-05-08T06:33:11.296Z,25.05
2023-05-08T06:34:11.291Z,25.07
2023-05-08T06:35:11.565Z,25.10
2023-05-08T06:36:11.414Z,25.11
2023-05-08T06:37:11.375Z,25.09
2023-05-08T06:38:11.435Z,25.07
2023-05-08T06:39:11.373Z,25.03
2023-05-08T06:40:12.713Z,24.96
2023-05-08T06:41:12.019Z,24.86
2023-05-08T06:42:11.565Z,24.81
2023-05-08T06:43:11.490Z,24.74
2023-05-08T06:44:11.568Z,24.72
2023-05-08T06:45:11.889Z,24.69
2023-05-08T06:46:11.686Z,24.64
2023-05-08T06:47:11.799Z,24.59
2023-05-08T06:48:11.803Z,24.55
2023-05-08T06:49:11.828Z,24.52
2023-05-08T06:50:11.952Z,24.47
2023-05-08T06:51:11.964Z,24.44
2023-05-08T06:52:11.975Z,24.43
2023-05-08T06:53:12.057Z,24.42
2023-05-08T06:54:12.103Z,24.40
2023-05-08T06:55:12.416Z,24.39
2023-05-08T06:56:12.183Z,24.37
2023-05-08T06:57:13.827Z,24.34
2023-05-08T06:58:12.232Z,24.33
2023-05-08T06:59:12.243Z,24.33
2023-05-08T07:00:12.314Z,24.33
2023-05-08T07:01:12.305Z,24.31
2023-05-08T07:02:12.480Z,24.30
2023-05-08T07:03:12.424Z,24.28
2023-05-08T07:04:12.296Z,24.26
2023-05-08T07:05:12.559Z,24.25
2023-05-08T07:06:12.314Z,24.25
2023-05-08T07:07:12.298Z,24.25
2023-05-08T07:08:12.299Z,24.23
2023-05-08T07:09:12.303Z,24.23
2023-05-08T07:10:12.340Z,24.23
2023-05-08T07:11:12.289Z,24.22
2023-05-08T07:12:12.288Z,24.20
2023-05-08T07:13:12.305Z,24.20
2023-05-08T07:14:12.282Z,24.20
2023-05-08T07:15:24.837Z,24.21
2023-05-08T07:16:13.344Z,24.20
2023-05-08T07:17:12.252Z,24.20
2023-05-08T07:18:12.275Z,24.19
2023-05-08T07:19:12.256Z,24.18
2023-05-08T07:20:12.250Z,24.17
2023-05-08T07:21:12.236Z,24.15
2023-05-08T07:22:12.277Z,24.13
2023-05-08T07:23:12.206Z,24.14
2023-05-08T07:24:12.202Z,24.14
2023-05-08T07:25:12.362Z,24.12
2023-05-08T07:26:12.198Z,24.14
2023-05-08T07:27:12.172Z,24.14
2023-05-08T07:28:12.193Z,24.14
2023-05-08T07:29:12.180Z,24.17
2023-05-08T07:30:12.195Z,24.17
2023-05-08T07:31:12.241Z,24.16
2023-05-08T07:32:12.163Z,24.18
2023-05-08T07:33:12.129Z,24.18
2023-05-08T07:34:12.135Z,24.17
2023-05-08T07:35:13.001Z,24.17
2023-05-08T07:36:12.136Z,24.18
2023-05-08T07:37:12.144Z,24.19
2023-05-08T07:38:12.686Z,24.19
2023-05-08T07:39:12.189Z,24.19
2023-05-08T07:40:12.130Z,24.21
2023-05-08T07:41:12.166Z,24.20
2023-05-08T07:42:12.079Z,24.21
2023-05-08T07:43:12.173Z,24.25
2023-05-08T07:44:12.200Z,24.28
2023-05-08T07:45:12.361Z,24.31
2023-05-08T07:46:12.053Z,24.34
2023-05-08T07:47:12.120Z,24.38
2023-05-08T07:48:12.128Z,24.42
2023-05-08T07:49:12.055Z,24.46
2023-05-08T07:50:12.107Z,24.50
2023-05-08T07:51:12.164Z,24.52
2023-05-08T07:52:12.221Z,24.56
2023-05-08T07:53:12.242Z,24.60
2023-05-08T07:54:12.326Z,24.62
2023-05-08T07:55:12.775Z,24.65
2023-05-08T07:56:12.366Z,24.68
2023-05-08T07:57:12.389Z,24.71
2023-05-08T07:58:12.450Z,24.75
2023-05-08T07:59:12.455Z,24.76
2023-05-08T08:00:12.468Z,24.79
2023-05-08T08:01:12.495Z,24.83
2023-05-08T08:02:12.563Z,24.86
2023-05-08T08:03:12.590Z,24.91
2023-05-08T08:04:14.778Z,24.91
2023-05-08T08:05:12.931Z,24.93
2023-05-08T08:06:12.560Z,24.96
2023-05-08T08:07:12.558Z,24.99
2023-05-08T08:08:12.521Z,24.99
2023-05-08T08:09:12.514Z,25.01
2023-05-08T08:10:12.536Z,25.05
2023-05-08T08:11:12.533Z,25.08
2023-05-08T08:12:12.504Z,25.11
2023-05-08T08:13:12.666Z,25.12
2023-05-08T08:14:12.481Z,25.13
2023-05-08T08:15:12.818Z,25.13
2023-05-08T08:16:12.570Z,25.15
2023-05-08T08:17:12.501Z,25.18
2023-05-08T08:18:12.566Z,25.20
2023-05-08T08:19:12.452Z,25.22
2023-05-08T08:20:12.469Z,25.22
2023-05-08T08:21:12.451Z,25.23
2023-05-08T08:22:12.427Z,25.26
2023-05-08T08:23:12.484Z,25.27
2023-05-08T08:24:12.430Z,25.26
2023-05-08T08:25:12.628Z,25.28
2023-05-08T08:26:12.418Z,25.27
2023-05-08T08:27:12.419Z,25.28
2023-05-08T08:28:12.391Z,25.27
2023-05-08T08:29:12.411Z,25.25
2023-05-08T08:30:16.739Z,25.24
2023-05-08T08:31:13.481Z,25.20
2023-05-08T08:32:12.483Z,25.17
2023-05-08T08:33:12.458Z,25.15
2023-05-08T08:34:12.369Z,25.12
2023-05-08T08:35:12.626Z,25.09
2023-05-08T08:36:12.351Z,25.07
2023-05-08T08:37:12.339Z,25.04
2023-05-08T08:38:12.328Z,25.00
2023-05-08T08:39:13.873Z,24.98
2023-05-08T08:40:12.426Z,24.95
2023-05-08T08:41:12.304Z,24.92
2023-05-08T08:42:13.232Z,24.89
2023-05-08T08:43:12.721Z,24.84
2023-05-08T08:44:12.348Z,24.83
2023-05-08T08:45:13.213Z,24.81
2023-05-08T08:46:12.338Z,24.78
2023-05-08T08:47:12.261Z,24.75
2023-05-08T08:48:12.401Z,24.73
2023-05-08T08:49:12.274Z,24.70
2023-05-08T08:50:14.636Z,24.66
2023-05-08T08:51:12.422Z,24.61
2023-05-08T08:52:12.494Z,24.58
2023-05-08T08:53:12.529Z,24.56
2023-05-08T08:54:12.579Z,24.55
2023-05-08T08:55:12.892Z,24.55
2023-05-08T08:56:12.711Z,24.51
2023-05-08T08:57:12.746Z,24.51
2023-05-08T08:58:12.841Z,24.51
2023-05-08T08:59:12.846Z,24.51
2023-05-08T09:00:12.927Z,24.51
2023-05-08T09:01:12.971Z,24.51
2023-05-08T09:02:13.145Z,24.52
2023-05-08T09:03:13.077Z,24.52
2023-05-08T09:04:13.210Z,24.51
2023-05-08T09:05:13.353Z,24.51
2023-05-08T09:06:13.263Z,24.51
2023-05-08T09:07:13.268Z,24.52
2023-05-08T09:08:13.353Z,24.52
2023-05-08T09:09:13.411Z,24.50
2023-05-08T09:10:13.496Z,24.51
2023-05-08T09:11:13.496Z,24.52
2023-05-08T09:12:13.560Z,24.52
2023-05-08T09:13:13.604Z,24.52
2023-05-08T09:14:13.633Z,24.53
2023-05-08T09:15:13.904Z,24.53
2023-05-08T09:16:13.781Z,24.53
2023-05-08T09:17:13.759Z,24.54
2023-05-08T09:18:13.864Z,24.52
2023-05-08T09:19:13.870Z,24.53
2023-05-08T09:20:14.235Z,24.54
2023-05-08T09:21:13.958Z,24.54
2023-05-08T09:22:14.014Z,24.56
2023-05-08T09:23:14.113Z,24.55
2023-05-08T09:24:14.131Z,24.56
2023-05-08T09:25:14.306Z,24.56
2023-05-08T09:26:14.155Z,24.56
2023-05-08T09:27:14.208Z,24.57
2023-05-08T09:28:14.256Z,24.57
2023-05-08T09:29:14.334Z,24.56
2023-05-08T09:30:14.377Z,24.56
2023-05-08T09:31:14.408Z,24.57
2023-05-08T09:32:14.494Z,24.57
2023-05-08T09:33:14.542Z,24.58
2023-05-08T09:34:14.529Z,24.56
2023-05-08T09:35:14.804Z,24.54
2023-05-08T09:36:14.825Z,24.52
2023-05-08T09:37:14.697Z,24.48
2023-05-08T09:38:14.742Z,24.44
2023-05-08T09:39:14.759Z,24.41
2023-05-08T09:40:14.909Z,24.37
2023-05-08T09:41:16.352Z,24.33
2023-05-08T09:42:14.946Z,24.29
2023-05-08T09:43:15.237Z,24.27
2023-05-08T09:44:15.091Z,24.24
2023-05-08T09:45:15.363Z,24.21
2023-05-08T09:46:15.190Z,24.19
2023-05-08T09:47:15.173Z,24.17
2023-05-08T09:48:15.217Z,24.16
2023-05-08T09:49:15.400Z,24.15
2023-05-08T09:50:15.427Z,24.14
2023-05-08T09:51:15.247Z,24.13
2023-05-08T09:52:15.389Z,24.11
2023-05-08T09:53:15.750Z,24.10
2023-05-08T09:54:15.277Z,24.09
2023-05-08T09:55:15.266Z,24.08
2023-05-08T09:56:15.258Z,24.06
2023-05-08T09:57:15.342Z,24.04
2023-05-08T09:58:15.753Z,24.03
2023-05-08T09:59:15.254Z,24.02
2023-05-08T10:00:15.414Z,24.01
2023-05-08T10:01:15.278Z,24.00
2023-05-08T10:02:15.280Z,24.00
2023-05-08T10:03:15.360Z,23.99
2023-05-08T10:04:15.284Z,23.97
2023-05-08T10:05:15.536Z,23.96
2023-05-08T10:06:15.332Z,23.94
2023-05-08T10:07:15.334Z,23.94
2023-05-08T10:08:15.398Z,23.93
2023-05-08T10:09:15.337Z,23.92
2023-05-08T10:10:15.480Z,23.91
2023-05-08T10:11:15.378Z,23.90
2023-05-08T10:12:15.381Z,23.88
2023-05-08T10:13:15.819Z,23.88
2023-05-08T10:14:15.402Z,23.87
2023-05-08T10:15:15.491Z,23.87
2023-05-08T10:16:15.489Z,23.87
2023-05-08T10:17:15.485Z,23.86
2023-05-08T10:18:15.480Z,23.86
2023-05-08T10:19:15.522Z,23.84
2023-05-08T10:20:15.670Z,23.84
2023-05-08T10:21:15.565Z,23.84
2023-05-08T10:22:15.542Z,23.84
2023-05-08T10:23:15.608Z,23.84
2023-05-08T10:24:15.664Z,23.83
2023-05-08T10:25:15.616Z,23.83
2023-05-08T10:26:15.736Z,23.85
2023-05-08T10:27:15.614Z,23.89
2023-05-08T10:28:15.611Z,23.93
2023-05-08T10:29:15.704Z,23.95
2023-05-08T10:30:15.891Z,23.95
2023-05-08T10:31:15.815Z,23.95
2023-05-08T10:32:15.648Z,23.93
2023-05-08T10:33:15.757Z,23.94
2023-05-08T10:34:15.665Z,23.99
2023-05-08T10:35:15.720Z,24.04
2023-05-08T10:36:15.728Z,24.08
2023-05-08T10:37:15.684Z,24.13
2023-05-08T10:38:15.677Z,24.16
2023-05-08T10:39:15.661Z,24.20
2023-05-08T10:40:16.078Z,24.24
2023-05-08T10:41:15.793Z,24.27
2023-05-08T10:42:15.780Z,24.31
2023-05-08T10:43:15.853Z,24.33
2023-05-08T10:44:15.893Z,24.36
2023-05-08T10:45:15.951Z,24.39
2023-05-08T10:46:16.088Z,24.42
2023-05-08T10:47:16.085Z,24.43
2023-05-08T10:48:16.159Z,24.47
2023-05-08T10:49:16.212Z,24.48
2023-05-08T10:50:16.458Z,24.50
2023-05-08T10:51:16.328Z,24.52
2023-05-08T10:52:16.403Z,24.54
2023-05-08T10:53:16.407Z,24.55
2023-05-08T10:54:16.460Z,24.57
2023-05-08T10:55:16.513Z,24.58
2023-05-08T10:56:16.532Z,24.59
2023-05-08T10:57:16.606Z,24.60
2023-05-08T10:58:16.633Z,24.61
2023-05-08T10:59:16.711Z,24.61
2023-05-08T11:00:16.795Z,24.61
2023-05-08T11:01:16.831Z,24.62
2023-05-08T11:02:16.869Z,24.63
2023-05-08T11:03:29.937Z,24.64
2023-05-08T11:04:18.018Z,24.63
2023-05-08T11:05:16.829Z,24.65
2023-05-08T11:06:16.823Z,24.65
2023-05-08T11:07:16.800Z,24.65
2023-05-08T11:08:16.819Z,24.66
2023-05-08T11:09:16.854Z,24.67
2023-05-08T11:10:16.844Z,24.67
2023-05-08T11:11:16.789Z,24.68
2023-05-08T11:12:16.793Z,24.68
2023-05-08T11:13:16.916Z,24.69
2023-05-08T11:14:16.770Z,24.69
2023-05-08T11:15:16.764Z,24.70
2023-05-08T11:16:16.891Z,24.70
2023-05-08T11:17:16.934Z,24.70
2023-05-08T11:18:16.866Z,24.70
2023-05-08T11:19:17.010Z,24.71
2023-05-08T11:20:17.179Z,24.72
2023-05-08T11:21:17.309Z,24.71
2023-05-08T11:22:17.069Z,24.72
2023-05-08T11:23:17.286Z,24.73
2023-05-08T11:24:17.128Z,24.73
2023-05-08T11:25:17.191Z,24.73
2023-05-08T11:26:17.195Z,24.74
2023-05-08T11:27:17.238Z,24.74
2023-05-08T11:28:17.312Z,24.75
2023-05-08T11:29:17.328Z,24.75
2023-05-08T11:30:17.345Z,24.75
2023-05-08T11:31:17.475Z,24.75
2023-05-08T11:32:17.420Z,24.76
2023-05-08T11:33:17.560Z,24.77
2023-05-08T11:34:17.495Z,24.77
2023-05-08T11:35:17.516Z,24.78
2023-05-08T11:36:17.626Z,24.80
2023-05-08T11:37:17.651Z,24.80
2023-05-08T11:38:17.688Z,24.81
2023-05-08T11:39:17.696Z,24.82
2023-05-08T11:40:17.710Z,24.83
2023-05-08T11:41:17.707Z,24.83
2023-05-08T11:42:17.758Z,24.85
2023-05-08T11:43:17.792Z,24.85
2023-05-08T11:44:17.834Z,24.85
2023-05-08T11:45:17.868Z,24.85
2023-05-08T11:46:17.955Z,24.85
2023-05-08T11:47:17.924Z,24.85
2023-05-08T11:48:17.933Z,24.85
2023-05-08T11:49:20.420Z,24.86
2023-05-08T11:50:18.023Z,24.85
2023-05-08T11:51:17.924Z,24.86
2023-05-08T11:52:17.921Z,24.85
2023-05-08T11:53:17.917Z,24.86
2023-05-08T11:54:17.955Z,24.87
2023-05-08T11:55:17.885Z,24.88
2023-05-08T11:56:17.916Z,24.87
2023-05-08T11:57:17.899Z,24.88
2023-05-08T11:58:17.875Z,24.87
2023-05-08T11:59:17.891Z,24.87
2023-05-08T12:00:18.081Z,24.87
2023-05-08T12:01:17.879Z,24.87
2023-05-08T12:02:17.903Z,24.87
2023-05-08T12:03:17.967Z,24.87
2023-05-08T12:04:17.965Z,24.87
2023-05-08T12:05:17.852Z,24.86
2023-05-08T12:06:17.864Z,24.87
2023-05-08T12:07:17.914Z,24.87
2023-05-08T12:08:17.896Z,24.87
2023-05-08T12:09:17.983Z,24.87
2023-05-08T12:10:18.295Z,24.87
2023-05-08T12:11:17.995Z,24.88
2023-05-08T12:12:18.314Z,24.87
2023-05-08T12:13:18.086Z,24.86
2023-05-08T12:14:18.062Z,24.86
2023-05-08T12:15:18.113Z,24.86
2023-05-08T12:16:18.095Z,24.86
2023-05-08T12:17:18.203Z,24.86
2023-05-08T12:18:18.180Z,24.85
2023-05-08T12:19:18.186Z,24.86
2023-05-08T12:20:18.524Z,24.86
2023-05-08T12:21:18.220Z,24.85
2023-05-08T12:22:18.249Z,24.86
2023-05-08T12:23:18.256Z,24.85
2023-05-08T12:24:18.296Z,24.86
2023-05-08T12:25:18.369Z,24.85
2023-05-08T12:26:18.340Z,24.85
2023-05-08T12:27:18.376Z,24.85
2023-05-08T12:28:18.406Z,24.85
2023-05-08T12:29:18.484Z,24.85
2023-05-08T12:30:18.922Z,24.86
2023-05-08T12:31:18.542Z,24.85
2023-05-08T12:32:18.537Z,24.85
2023-05-08T12:33:18.575Z,24.85
2023-05-08T12:34:18.563Z,24.86
2023-05-08T12:35:18.599Z,24.85
2023-05-08T12:36:18.611Z,24.86
2023-05-08T12:37:18.640Z,24.86
2023-05-08T12:38:18.644Z,24.86
2023-05-08T12:39:18.693Z,24.86
2023-05-08T12:40:18.730Z,24.85
2023-05-08T12:41:18.745Z,24.84
2023-05-08T12:42:18.768Z,24.85
2023-05-08T12:43:18.782Z,24.85
2023-05-08T12:44:18.803Z,24.84
2023-05-08T12:45:18.876Z,24.85
2023-05-08T12:46:18.904Z,24.85
2023-05-08T12:47:18.880Z,24.84
2023-05-08T12:48:18.976Z,24.84
2023-05-08T12:49:18.947Z,24.85
2023-05-08T12:50:18.955Z,24.85
2023-05-08T12:51:19.042Z,24.85
2023-05-08T12:52:19.007Z,24.86
2023-05-08T12:53:19.016Z,24.86
2023-05-08T12:54:19.057Z,24.85